createdAt,value
2018-06-10T00:00:23.363Z,17.50
2018-06-10T00:02:51.848Z,17.50
2018-06-10T00:05:20.353Z,17.50
2018-06-10T00:07:48.878Z,17.50
2018-06-10T00:10:17.407Z,17.40
2018-06-10T00:12:45.930Z,17.40
2018-06-10T00:15:14.454Z,17.40
2018-06-10T00:17:42.997Z,17.40
2018-06-10T00:20:11.517Z,17.40
2018-06-10T00:22:40.062Z,17.40
2018-06-10T00:25:08.562Z,17.50
2018-06-10T00:27:37.065Z,17.50
2018-06-10T00:30:05.600Z,17.50
2018-06-10T00:32:34.126Z,17.40
2018-06-10T00:35:02.630Z,17.40
2018-06-10T00:37:31.117Z,17.40
2018-06-10T00:39:59.625Z,17.40
2018-06-10T00:42:28.122Z,17.30
2018-06-10T00:44:56.733Z,17.20
2018-06-10T00:47:25.234Z,17.30
2018-06-10T00:49:53.747Z,17.20
2018-06-10T00:52:22.262Z,17.30
2018-06-10T00:54:50.734Z,17.30
2018-06-10T00:57:19.341Z,17.30
2018-06-10T00:59:47.910Z,17.30
2018-06-10T01:02:16.419Z,17.40
2018-06-10T01:04:44.933Z,17.40
2018-06-10T01:07:13.462Z,17.30
2018-06-10T01:09:41.970Z,17.30
2018-06-10T01:12:10.449Z,17.20
2018-06-10T01:14:38.929Z,17.20
2018-06-10T01:17:07.438Z,17.10
2018-06-10T01:19:37.178Z,17.10
2018-06-10T01:22:05.694Z,17.10
2018-06-10T01:24:34.186Z,17.00
2018-06-10T01:27:02.672Z,16.90
2018-06-10T01:29:31.203Z,16.90
2018-06-10T01:31:59.754Z,16.90
2018-06-10T01:34:28.273Z,16.80
2018-06-10T01:36:56.797Z,16.80
2018-06-10T01:39:25.296Z,16.70
2018-06-10T01:41:53.833Z,16.70
2018-06-10T01:44:22.314Z,16.70
2018-06-10T01:46:50.822Z,16.70
2018-06-10T01:49:19.318Z,16.70
2018-06-10T01:51:47.801Z,16.80
2018-06-10T01:54:16.318Z,16.70
2018-06-10T01:56:44.798Z,16.70
2018-06-10T01:59:13.327Z,16.70
2018-06-10T02:01:41.834Z,16.60
2018-06-10T02:04:10.337Z,16.60
2018-06-10T02:06:38.915Z,16.50
2018-06-10T02:09:07.466Z,16.50
2018-06-10T02:11:35.972Z,16.50
2018-06-10T02:14:04.516Z,16.50
2018-06-10T02:16:33.011Z,16.50
2018-06-10T02:19:01.512Z,16.50
2018-06-10T02:21:29.993Z,16.30
2018-06-10T02:23:58.532Z,16.30
2018-06-10T02:26:27.044Z,16.30
2018-06-10T02:28:55.597Z,16.30
2018-06-10T02:31:24.114Z,16.30
2018-06-10T02:33:52.606Z,16.30
2018-06-10T02:36:21.092Z,16.40
2018-06-10T02:38:49.605Z,16.30
2018-06-10T02:41:18.130Z,16.30
2018-06-10T02:43:46.664Z,16.30
2018-06-10T02:46:15.136Z,16.20
2018-06-10T02:48:43.659Z,16.30
2018-06-10T02:51:12.153Z,16.20
2018-06-10T02:53:40.714Z,16.20
2018-06-10T02:56:09.200Z,16.30
2018-06-10T02:58:37.698Z,16.20
2018-06-10T03:01:06.234Z,16.20
2018-06-10T03:03:34.758Z,16.20
2018-06-10T03:06:03.341Z,16.20
2018-06-10T03:08:31.828Z,16.20
2018-06-10T03:11:00.305Z,16.20
2018-06-10T03:13:28.803Z,16.20
2018-06-10T03:15:57.333Z,16.20
2018-06-10T03:18:25.836Z,16.20
2018-06-10T03:20:54.343Z,16.20
2018-06-10T03:23:22.909Z,16.10
2018-06-10T03:25:51.405Z,16.10
2018-06-10T03:28:19.918Z,16.10
2018-06-10T03:30:48.410Z,16.20
2018-06-10T03:33:16.914Z,16.20
2018-06-10T03:35:45.408Z,16.20
2018-06-10T03:38:13.909Z,16.20
2018-06-10T03:40:42.430Z,16.30
2018-06-10T03:43:10.913Z,16.30
2018-06-10T03:45:39.463Z,16.30
2018-06-10T03:48:08.025Z,16.30
2018-06-10T03:50:36.524Z,16.30
2018-06-10T03:53:05.036Z,16.40
2018-06-10T03:55:33.542Z,16.50
2018-06-10T03:58:02.097Z,16.50
2018-06-10T04:00:30.610Z,16.60
2018-06-10T04:02:59.114Z,16.60
2018-06-10T04:05:27.622Z,16.60
2018-06-10T04:07:56.176Z,16.70
2018-06-10T04:10:24.681Z,16.80
2018-06-10T04:12:53.211Z,16.80
2018-06-10T04:15:21.718Z,16.90
2018-06-10T04:17:50.188Z,17.00
2018-06-10T04:20:18.738Z,17.00
2018-06-10T04:22:47.250Z,17.00
2018-06-10T04:25:15.788Z,17.10
2018-06-10T04:27:44.278Z,17.10
2018-06-10T04:30:12.822Z,17.20
2018-06-10T04:32:41.326Z,17.20
2018-06-10T04:35:09.838Z,17.20
2018-06-10T04:37:38.369Z,17.20
2018-06-10T04:40:06.890Z,17.20
2018-06-10T04:42:35.385Z,17.10
2018-06-10T04:45:03.994Z,17.20
2018-06-10T04:47:32.518Z,17.10
2018-06-10T04:50:01.017Z,17.10
2018-06-10T04:52:29.518Z,17.10
2018-06-10T04:54:58.006Z,17.20
2018-06-10T04:57:26.507Z,17.20
2018-06-10T04:59:55.048Z,17.30
2018-06-10T05:02:23.540Z,17.40
2018-06-10T05:04:52.041Z,17.50
2018-06-10T05:07:20.557Z,17.70
2018-06-10T05:09:49.058Z,17.70
2018-06-10T05:12:17.539Z,17.80
2018-06-10T05:14:46.072Z,17.90
2018-06-10T05:17:14.563Z,18.00
2018-06-10T05:19:43.093Z,18.00
2018-06-10T05:22:11.612Z,18.10
2018-06-10T05:24:40.118Z,18.20
2018-06-10T05:27:08.666Z,18.30
2018-06-10T05:29:37.173Z,18.40
2018-06-10T05:32:05.746Z,18.50
2018-06-10T05:34:34.250Z,18.50
2018-06-10T05:37:02.750Z,18.60
2018-06-10T05:39:31.258Z,18.70
2018-06-10T05:41:59.826Z,18.70
2018-06-10T05:44:28.342Z,18.80
2018-06-10T05:46:56.866Z,18.90
2018-06-10T05:49:25.359Z,18.90
2018-06-10T05:51:53.882Z,19.00
2018-06-10T05:54:22.397Z,19.20
2018-06-10T05:56:50.950Z,19.30
2018-06-10T05:59:19.524Z,19.30
2018-06-10T06:01:48.072Z,19.40
2018-06-10T06:04:16.630Z,19.60
2018-06-10T06:06:45.206Z,19.70
2018-06-10T06:09:13.704Z,19.90
2018-06-10T06:11:42.214Z,20.10
2018-06-10T06:14:10.712Z,20.30
2018-06-10T06:16:39.210Z,20.50
2018-06-10T06:19:07.737Z,20.70
2018-06-10T06:21:36.241Z,20.90
2018-06-10T06:24:04.816Z,20.90
2018-06-10T06:26:33.328Z,21.10
2018-06-10T06:29:01.857Z,21.20
2018-06-10T06:31:30.369Z,21.30
2018-06-10T06:33:58.878Z,21.30
2018-06-10T06:36:27.480Z,21.40
2018-06-10T06:38:56.028Z,21.50
2018-06-10T06:41:24.559Z,21.60
2018-06-10T06:43:53.139Z,21.60
2018-06-10T06:46:21.680Z,21.60
2018-06-10T06:48:50.215Z,21.70
2018-06-10T06:51:18.755Z,21.80
2018-06-10T06:53:47.334Z,21.90
2018-06-10T06:56:15.854Z,22.00
2018-06-10T06:58:44.375Z,22.00
2018-06-10T07:01:12.917Z,22.10
2018-06-10T07:03:41.425Z,22.20
2018-06-10T07:06:09.930Z,22.20
2018-06-10T07:08:38.466Z,22.30
2018-06-10T07:11:06.985Z,22.40
2018-06-10T07:13:35.682Z,22.50
2018-06-10T07:16:04.353Z,22.60
2018-06-10T07:18:32.931Z,22.70
2018-06-10T07:21:01.435Z,23.00
2018-06-10T07:23:29.963Z,23.10
2018-06-10T07:25:58.452Z,23.30
2018-06-10T07:28:26.974Z,23.60
2018-06-10T07:30:55.505Z,23.80
2018-06-10T07:33:24.106Z,23.80
2018-06-10T07:35:52.598Z,23.80
2018-06-10T07:38:21.109Z,23.80
2018-06-10T07:40:49.662Z,23.80
2018-06-10T07:43:18.194Z,23.80
2018-06-10T07:45:46.791Z,23.90
2018-06-10T07:48:15.401Z,23.90
2018-06-10T07:50:43.924Z,24.00
2018-06-10T07:53:12.483Z,24.20
2018-06-10T07:55:40.966Z,24.30
2018-06-10T07:58:09.548Z,24.40
2018-06-10T08:00:38.106Z,24.40
2018-06-10T08:03:06.645Z,24.60
2018-06-10T08:05:35.214Z,24.60
2018-06-10T08:08:03.732Z,24.70
2018-06-10T08:10:32.261Z,24.70
2018-06-10T08:13:00.788Z,24.80
2018-06-10T08:15:29.312Z,24.80
2018-06-10T08:17:57.837Z,24.80
2018-06-10T08:20:26.370Z,24.80
2018-06-10T08:22:54.920Z,24.80
2018-06-10T08:25:23.454Z,24.90
2018-06-10T08:27:51.973Z,24.80
2018-06-10T08:30:20.515Z,24.90
2018-06-10T08:32:48.996Z,25.00
2018-06-10T08:35:17.541Z,25.10
2018-06-10T08:37:46.049Z,25.30
2018-06-10T08:40:14.554Z,25.50
2018-06-10T08:42:43.193Z,25.60
2018-06-10T08:45:11.718Z,25.60
2018-06-10T08:47:40.280Z,25.80
2018-06-10T08:50:08.854Z,26.00
2018-06-10T08:52:37.361Z,26.00
2018-06-10T08:55:05.858Z,26.10
2018-06-10T08:57:34.351Z,26.10
2018-06-10T09:00:02.938Z,26.20
2018-06-10T09:02:31.462Z,26.30
2018-06-10T09:04:59.969Z,26.30
2018-06-10T09:07:28.566Z,26.30
2018-06-10T09:09:57.091Z,26.40
2018-06-10T09:12:25.566Z,26.40
2018-06-10T09:14:54.127Z,26.50
2018-06-10T09:17:22.607Z,26.60
2018-06-10T09:19:51.147Z,26.80
2018-06-10T09:22:19.712Z,27.00
2018-06-10T09:24:48.180Z,27.20
2018-06-10T09:27:16.655Z,27.40
2018-06-10T09:29:45.161Z,27.40
2018-06-10T09:32:13.674Z,27.20
2018-06-10T09:34:42.194Z,27.10
2018-06-10T09:37:10.682Z,27.20
2018-06-10T09:39:39.216Z,27.30
2018-06-10T09:42:07.746Z,27.60
2018-06-10T09:44:36.276Z,27.80
2018-06-10T09:47:04.848Z,27.90
2018-06-10T09:49:33.370Z,27.90
2018-06-10T09:52:01.860Z,28.00
2018-06-10T09:54:30.346Z,27.90
2018-06-10T09:56:58.842Z,27.70
2018-06-10T09:59:27.347Z,27.70
2018-06-10T10:01:55.946Z,27.90
2018-06-10T10:04:24.454Z,27.90
2018-06-10T10:06:52.994Z,27.80
2018-06-10T10:09:21.682Z,27.60
2018-06-10T10:11:50.168Z,27.20
2018-06-10T10:14:18.702Z,27.00
2018-06-10T10:16:47.190Z,26.70
2018-06-10T10:19:15.690Z,26.50
2018-06-10T10:21:44.213Z,26.30
2018-06-10T10:24:12.718Z,26.20
2018-06-10T10:26:41.205Z,26.10
2018-06-10T10:29:09.705Z,26.00
2018-06-10T10:31:38.221Z,26.00
2018-06-10T10:34:06.730Z,26.00
2018-06-10T10:36:35.222Z,26.00
2018-06-10T10:39:05.588Z,26.00
2018-06-10T10:44:02.275Z,25.90
2018-06-10T10:46:30.827Z,25.70
2018-06-10T10:48:59.485Z,25.60
2018-06-10T10:51:28.012Z,25.60
2018-06-10T10:53:56.555Z,25.60
2018-06-10T10:56:25.766Z,25.50
2018-06-10T10:58:55.408Z,25.40
2018-06-10T11:01:23.907Z,25.20
2018-06-10T11:03:52.418Z,25.10
2018-06-10T11:06:20.910Z,25.00
2018-06-10T11:08:49.439Z,25.00
2018-06-10T11:11:17.957Z,24.90
2018-06-10T11:13:46.422Z,24.80
2018-06-10T11:16:14.938Z,24.80
2018-06-10T11:18:43.442Z,24.70
2018-06-10T11:21:12.026Z,24.70
2018-06-10T11:23:40.505Z,24.60
2018-06-10T11:26:09.014Z,24.10
2018-06-10T11:28:37.524Z,23.80
2018-06-10T11:31:06.071Z,23.60
2018-06-10T11:33:34.570Z,23.50
2018-06-10T11:36:03.133Z,23.50
2018-06-10T11:38:32.667Z,23.40
2018-06-10T11:41:01.153Z,23.30
2018-06-10T11:43:29.934Z,23.40
2018-06-10T11:45:58.435Z,23.50
2018-06-10T11:48:27.010Z,23.60
2018-06-10T11:50:55.536Z,23.80
2018-06-10T11:53:25.309Z,23.90
2018-06-10T11:55:53.841Z,24.10
2018-06-10T11:58:22.425Z,24.30
2018-06-10T12:00:51.073Z,24.30
2018-06-10T12:03:19.834Z,24.30
2018-06-10T12:05:48.436Z,24.40
2018-06-10T12:08:16.950Z,24.40
2018-06-10T12:10:45.486Z,24.50
2018-06-10T12:13:14.006Z,24.70
2018-06-10T12:15:42.590Z,24.70
2018-06-10T12:18:11.109Z,24.70
2018-06-10T12:20:39.618Z,24.60
2018-06-10T12:23:08.163Z,24.60
2018-06-10T12:25:36.705Z,24.50
2018-06-10T12:28:05.458Z,24.40
2018-06-10T12:30:34.054Z,24.40
2018-06-10T12:33:02.585Z,24.30
2018-06-10T12:35:31.809Z,24.30
2018-06-10T12:38:00.306Z,24.30
2018-06-10T12:40:28.788Z,24.20
2018-06-10T12:42:57.353Z,24.20
2018-06-10T12:45:25.846Z,24.20
2018-06-10T12:47:54.347Z,24.10
2018-06-10T12:50:22.874Z,24.00
2018-06-10T12:52:51.454Z,23.90
2018-06-10T12:55:19.977Z,23.90
2018-06-10T12:57:48.485Z,23.80
2018-06-10T13:00:17.004Z,23.70
2018-06-10T13:02:45.481Z,23.60
2018-06-10T13:05:13.980Z,23.60
2018-06-10T13:07:42.525Z,23.50
2018-06-10T13:10:11.183Z,23.40
2018-06-10T13:12:40.161Z,23.40
2018-06-10T13:15:08.710Z,23.40
2018-06-10T13:17:37.225Z,23.30
2018-06-10T13:20:05.734Z,23.30
2018-06-10T13:22:34.234Z,23.20
2018-06-10T13:25:02.751Z,23.10
2018-06-10T13:27:31.294Z,22.90
2018-06-10T13:29:59.750Z,22.80
2018-06-10T13:32:28.324Z,22.70
2018-06-10T13:34:56.853Z,22.60
2018-06-10T13:37:25.356Z,22.50
2018-06-10T13:39:53.855Z,22.40
2018-06-10T13:42:22.365Z,22.40
2018-06-10T13:44:50.902Z,22.30
2018-06-10T13:47:19.636Z,22.30
2018-06-10T13:49:48.146Z,22.30
2018-06-10T13:52:16.682Z,22.20
2018-06-10T13:54:45.286Z,22.10
2018-06-10T13:57:13.789Z,22.00
2018-06-10T13:59:42.350Z,21.80
2018-06-10T14:02:10.856Z,21.70
2018-06-10T14:04:39.439Z,21.50
2018-06-10T14:07:08.041Z,21.40
2018-06-10T14:09:36.755Z,21.30
2018-06-10T14:12:05.958Z,21.30
2018-06-10T14:14:35.342Z,21.30
2018-06-10T14:17:04.530Z,21.30
2018-06-10T14:19:33.146Z,21.30
2018-06-10T14:22:01.786Z,21.30
2018-06-10T14:24:30.691Z,21.30
2018-06-10T14:26:59.553Z,21.30
2018-06-10T14:29:28.692Z,21.20
2018-06-10T14:32:01.605Z,21.30
2018-06-10T14:34:31.485Z,21.30
2018-06-10T14:37:00.497Z,21.30
2018-06-10T14:39:29.045Z,21.40
2018-06-10T14:41:57.588Z,21.30
2018-06-10T14:44:26.162Z,21.30
2018-06-10T14:46:54.743Z,21.30
2018-06-10T14:49:23.250Z,21.30
2018-06-10T14:51:51.961Z,21.20
2018-06-10T14:54:20.862Z,21.30
2018-06-10T14:56:50.210Z,21.30
2018-06-10T14:59:18.871Z,21.30
2018-06-10T15:01:47.774Z,21.30
2018-06-10T15:04:16.287Z,21.30
2018-06-10T15:06:44.970Z,21.30
2018-06-10T15:09:13.522Z,21.30
2018-06-10T15:11:42.103Z,21.30
2018-06-10T15:14:10.627Z,21.30
2018-06-10T15:16:39.134Z,21.30
2018-06-10T15:19:07.292Z,21.40
2018-06-10T15:21:35.855Z,21.40
2018-06-10T15:26:32.872Z,21.50
2018-06-10T15:29:01.408Z,21.60
2018-06-10T15:31:29.991Z,21.70
2018-06-10T15:33:58.539Z,21.80
2018-06-10T15:36:27.218Z,21.90
2018-06-10T15:38:55.751Z,21.90
2018-06-10T15:41:24.251Z,21.90
2018-06-10T15:43:52.834Z,21.90
2018-06-10T15:46:21.389Z,21.90
2018-06-10T15:48:50.027Z,21.80
2018-06-10T15:51:18.573Z,21.80
2018-06-10T15:53:47.100Z,21.80
2018-06-10T15:56:15.637Z,21.80
2018-06-10T15:58:44.145Z,21.80
2018-06-10T16:01:12.660Z,21.90
2018-06-10T16:03:41.215Z,21.80
2018-06-10T16:06:09.784Z,21.80
2018-06-10T16:08:38.385Z,21.70
2018-06-10T16:11:06.936Z,21.70
2018-06-10T16:13:35.442Z,21.60
2018-06-10T16:16:03.982Z,21.50
2018-06-10T16:18:32.495Z,21.50
2018-06-10T16:21:01.014Z,21.40
2018-06-10T16:23:29.530Z,21.30
2018-06-10T16:25:58.067Z,21.20
2018-06-10T16:28:26.568Z,21.20
2018-06-10T16:30:55.060Z,21.10
2018-06-10T16:33:23.590Z,21.00
2018-06-10T16:35:52.110Z,20.90
2018-06-10T16:38:20.678Z,20.90
2018-06-10T16:40:49.214Z,20.80
2018-06-10T16:43:19.508Z,20.80
2018-06-10T16:45:48.611Z,20.70
2018-06-10T16:48:17.121Z,20.70
2018-06-10T16:50:45.630Z,20.60
2018-06-10T16:53:14.131Z,20.60
2018-06-10T16:55:42.646Z,20.50
2018-06-10T16:58:11.202Z,20.50
2018-06-10T17:00:39.788Z,20.50
2018-06-10T17:03:08.317Z,20.50
2018-06-10T17:05:36.952Z,20.50
2018-06-10T17:08:05.477Z,20.50
2018-06-10T17:10:33.995Z,20.50
2018-06-10T17:13:02.687Z,20.50
2018-06-10T17:15:31.893Z,20.40
2018-06-10T17:18:00.491Z,20.50
2018-06-10T17:20:29.152Z,20.50
2018-06-10T17:22:57.638Z,20.50
2018-06-10T17:25:26.217Z,20.50
2018-06-10T17:27:54.732Z,20.50
2018-06-10T17:30:23.306Z,20.50
2018-06-10T17:32:51.883Z,20.50
2018-06-10T17:35:20.422Z,20.40
2018-06-10T17:37:48.956Z,20.40
2018-06-10T17:40:17.487Z,20.40
2018-06-10T17:42:46.046Z,20.40
2018-06-10T17:45:14.643Z,20.40
2018-06-10T17:47:43.160Z,20.40
2018-06-10T17:50:11.701Z,20.30
2018-06-10T17:52:40.237Z,20.30
2018-06-10T17:55:08.730Z,20.30
2018-06-10T17:57:37.230Z,20.20
2018-06-10T18:00:05.750Z,20.20
2018-06-10T18:02:34.242Z,20.10
2018-06-10T18:05:02.772Z,20.10
2018-06-10T18:07:31.290Z,20.10
2018-06-10T18:09:59.874Z,20.00
2018-06-10T18:12:28.381Z,20.00
2018-06-10T18:14:56.994Z,20.00
2018-06-10T18:17:25.522Z,19.90
2018-06-10T18:19:54.419Z,19.80
2018-06-10T18:22:22.953Z,19.80
2018-06-10T18:24:51.486Z,19.80
2018-06-10T18:27:19.991Z,19.80
2018-06-10T18:29:48.583Z,19.70
2018-06-10T18:32:17.154Z,19.70
2018-06-10T18:34:45.648Z,19.70
2018-06-10T18:37:14.178Z,19.70
2018-06-10T18:39:42.672Z,19.60
2018-06-10T18:42:11.211Z,19.50
2018-06-10T18:44:39.778Z,19.40
2018-06-10T18:47:08.934Z,19.40
2018-06-10T18:49:37.466Z,19.40
2018-06-10T18:52:06.008Z,19.40
2018-06-10T18:54:34.503Z,19.50
2018-06-10T18:57:03.638Z,19.50
2018-06-10T18:59:32.201Z,19.50
2018-06-10T19:02:00.778Z,19.50
2018-06-10T19:04:29.583Z,19.60
2018-06-10T19:06:58.143Z,19.60
2018-06-10T19:09:26.728Z,19.60
2018-06-10T19:11:55.343Z,19.70
2018-06-10T19:14:24.214Z,19.70
2018-06-10T19:16:52.797Z,19.60
2018-06-10T19:19:21.332Z,19.70
2018-06-10T19:21:49.837Z,19.70
2018-06-10T19:24:18.344Z,19.70
2018-06-10T19:26:47.403Z,19.70
2018-06-10T19:29:15.947Z,19.80
2018-06-10T19:31:45.273Z,19.70
2018-06-10T19:34:14.441Z,19.70
2018-06-10T19:36:42.954Z,19.60
2018-06-10T19:39:11.484Z,19.70
2018-06-10T19:41:40.011Z,19.70
2018-06-10T19:44:08.527Z,19.70
2018-06-10T19:46:37.036Z,19.50
2018-06-10T19:49:05.624Z,19.40
2018-06-10T19:51:34.129Z,19.30
2018-06-10T19:54:02.613Z,19.20
2018-06-10T19:56:31.125Z,19.10
2018-06-10T19:58:59.641Z,19.00
2018-06-10T20:01:29.072Z,19.00
2018-06-10T20:03:57.588Z,18.90
2018-06-10T20:06:26.493Z,18.90
2018-06-10T20:08:55.007Z,18.80
2018-06-10T20:11:23.535Z,18.80
2018-06-10T20:13:52.064Z,18.70
2018-06-10T20:16:20.623Z,18.70
2018-06-10T20:18:50.157Z,18.70
2018-06-10T20:21:18.681Z,18.70
2018-06-10T20:23:47.209Z,18.70
2018-06-10T20:26:15.717Z,18.70
2018-06-10T20:28:44.247Z,18.60
2018-06-10T20:31:12.773Z,18.60
2018-06-10T20:33:41.269Z,18.60
2018-06-10T20:36:09.807Z,18.60
2018-06-10T20:38:38.320Z,18.60
2018-06-10T20:41:06.986Z,18.60
2018-06-10T20:43:35.473Z,18.60
2018-06-10T20:46:04.013Z,18.60
2018-06-10T20:48:32.593Z,18.60
2018-06-10T20:51:01.115Z,18.60
2018-06-10T20:53:29.623Z,18.60
2018-06-10T20:55:58.132Z,18.50
2018-06-10T20:58:26.663Z,18.60
2018-06-10T21:00:55.188Z,18.50
2018-06-10T21:03:23.711Z,18.50
2018-06-10T21:05:52.233Z,18.50
2018-06-10T21:08:20.762Z,18.50
2018-06-10T21:10:49.396Z,18.50
2018-06-10T21:13:17.943Z,18.50
2018-06-10T21:15:46.458Z,18.50
2018-06-10T21:18:14.981Z,18.50
2018-06-10T21:20:43.493Z,18.50
2018-06-10T21:23:12.040Z,18.40
2018-06-10T21:25:40.581Z,18.40
2018-06-10T21:28:09.322Z,18.40
2018-06-10T21:30:37.839Z,18.30
2018-06-10T21:33:06.347Z,18.20
2018-06-10T21:35:34.849Z,18.20
2018-06-10T21:38:03.383Z,18.10
2018-06-10T21:40:31.910Z,18.10
2018-06-10T21:43:00.405Z,18.00
2018-06-10T21:45:28.899Z,18.00
2018-06-10T21:47:57.422Z,18.00
2018-06-10T21:50:26.011Z,17.90
2018-06-10T21:52:54.532Z,17.90
2018-06-10T21:55:23.055Z,17.90
2018-06-10T21:57:51.559Z,17.90
2018-06-10T22:00:24.838Z,17.90
2018-06-10T22:02:53.427Z,17.90
2018-06-10T22:05:22.200Z,17.90
2018-06-10T22:07:50.717Z,17.90
2018-06-10T22:10:19.238Z,17.90
2018-06-10T22:12:47.745Z,17.90
2018-06-10T22:15:16.289Z,17.90
2018-06-10T22:17:44.851Z,17.90
2018-06-10T22:20:13.366Z,17.90
2018-06-10T22:22:41.861Z,17.90
2018-06-10T22:25:10.381Z,17.90
2018-06-10T22:27:38.914Z,17.90
2018-06-10T22:30:07.429Z,17.90
2018-06-10T22:32:36.001Z,17.90
2018-06-10T22:35:04.509Z,17.90
2018-06-10T22:37:33.022Z,17.80
2018-06-10T22:40:01.527Z,17.80
2018-06-10T22:42:30.045Z,17.80
2018-06-10T22:44:58.579Z,17.80
2018-06-10T22:47:27.083Z,17.80
2018-06-10T22:49:55.653Z,17.70
2018-06-10T22:52:24.210Z,17.70
2018-06-10T22:54:52.713Z,17.70
2018-06-10T22:57:21.242Z,17.70
2018-06-10T22:59:49.733Z,17.70
2018-06-10T23:02:18.266Z,17.70
2018-06-10T23:04:46.758Z,17.70
2018-06-10T23:07:15.347Z,17.70
2018-06-10T23:09:43.800Z,17.70
2018-06-10T23:12:12.342Z,17.70
2018-06-10T23:14:40.829Z,17.70
2018-06-10T23:17:09.332Z,17.70
2018-06-10T23:19:37.839Z,17.70
2018-06-10T23:22:06.343Z,17.70
2018-06-10T23:24:34.878Z,17.70
2018-06-10T23:27:03.372Z,17.70
2018-06-10T23:29:31.894Z,17.60
2018-06-10T23:32:00.410Z,17.70
2018-06-10T23:34:28.951Z,17.60
2018-06-10T23:36:57.444Z,17.60
2018-06-10T23:39:25.951Z,17.60
2018-06-10T23:41:54.502Z,17.50
2018-06-10T23:44:23.024Z,17.50
2018-06-10T23:46:51.563Z,17.50
2018-06-10T23:49:20.061Z,17.50
2018-06-10T23:51:49.031Z,17.50
2018-06-10T23:54:17.566Z,17.50
2018-06-10T23:56:46.097Z,17.40
2018-06-10T23:59:14.633Z,17.40
